Time;durP1;ratioP1;P1;durP2;ratioP2;P2;SDS_P1;SDS_P2;PMS_P1;PMS_P2;Temp;Humidity;BMP_temperature;BMP_pressure;BME280_temperature;BME280_humidity;BME280_pressure;Samples;Min_cycle;Max_cycle;Signal;HPM_P1;HPM_P2
2024/03/10 00:00:52;;;;;;;22.77;15.98;;;7.60;99.90;;;;;;5067467;28;20037;-49
2024/03/10 00:03:19;;;;;;;25.15;16.88;;;7.60;99.90;;;;;;5070143;28;20363;-49
2024/03/10 00:05:46;;;;;;;25.05;17.10;;;7.60;99.90;;;;;;5070758;28;20049;-51
2024/03/10 00:08:12;;;;;;;23.95;16.40;;;7.60;99.90;;;;;;5070212;28;20493;-47
2024/03/10 00:10:41;;;;;;;25.58;16.83;;;7.60;99.90;;;;;;5070544;28;20051;-52
2024/03/10 00:13:08;;;;;;;25.42;16.85;;;7.60;99.90;;;;;;5068186;28;20048;-51
2024/03/10 00:15:37;;;;;;;23.88;16.63;;;7.50;99.90;;;;;;5068519;28;20048;-50
2024/03/10 00:18:06;;;;;;;28.83;17.63;;;7.50;99.90;;;;;;5068529;28;20504;-51
2024/03/10 00:20:33;;;;;;;28.55;17.92;;;7.50;99.90;;;;;;5069593;28;20043;-47
2024/03/10 00:23:00;;;;;;;27.77;17.90;;;7.60;99.90;;;;;;5065426;28;20078;-51
2024/03/10 00:25:27;;;;;;;27.60;16.90;;;7.50;99.90;;;;;;5068108;28;20036;-51
2024/03/10 00:27:54;;;;;;;24.13;17.30;;;7.50;99.90;;;;;;5066431;28;20563;-53
2024/03/10 00:30:21;;;;;;;25.75;17.67;;;7.50;99.90;;;;;;5068285;28;20078;-47
2024/03/10 00:32:47;;;;;;;29.25;19.25;;;7.50;99.90;;;;;;5069622;28;20473;-46
2024/03/10 00:35:14;;;;;;;30.42;18.73;;;7.50;99.90;;;;;;5070473;28;20048;-53
2024/03/10 00:37:42;;;;;;;29.73;17.73;;;7.50;99.90;;;;;;5068050;28;20493;-47
2024/03/10 00:40:09;;;;;;;24.98;17.20;;;7.50;99.90;;;;;;5069744;28;20041;-49
2024/03/10 00:42:36;;;;;;;23.98;17.13;;;7.40;99.90;;;;;;5067955;28;20596;-53
2024/03/10 00:45:04;;;;;;;27.65;17.55;;;7.50;99.90;;;;;;5063817;28;20045;-49
2024/03/10 00:47:31;;;;;;;29.40;17.85;;;7.50;99.90;;;;;;5069104;28;20090;-50
2024/03/10 00:49:58;;;;;;;25.52;16.92;;;7.50;99.90;;;;;;5064743;28;20097;-44
2024/03/10 00:52:26;;;;;;;28.50;16.67;;;7.40;99.90;;;;;;5069215;28;20052;-47
2024/03/10 00:54:52;;;;;;;29.70;17.98;;;7.40;99.90;;;;;;5068850;28;20040;-53
2024/03/10 00:57:19;;;;;;;26.42;17.20;;;7.40;99.90;;;;;;5065194;28;20101;-49
2024/03/10 00:59:46;;;;;;;25.52;17.05;;;7.50;99.90;;;;;;5070693;28;20172;-52
2024/03/10 01:02:13;;;;;;;25.52;17.73;;;7.50;99.90;;;;;;5063625;28;20362;-52
2024/03/10 01:04:40;;;;;;;26.65;17.27;;;7.50;99.90;;;;;;5069106;28;20474;-52
2024/03/10 01:07:07;;;;;;;26.60;17.27;;;7.50;99.90;;;;;;5067989;28;20087;-51
2024/03/10 01:09:34;;;;;;;27.48;17.23;;;7.50;99.90;;;;;;5060458;28;20098;-48
2024/03/10 01:12:01;;;;;;;28.40;17.52;;;7.50;99.90;;;;;;5070170;28;20433;-54
2024/03/10 01:14:28;;;;;;;26.60;16.85;;;7.50;99.90;;;;;;5068807;28;20124;-45
2024/03/10 01:16:55;;;;;;;26.10;17.15;;;7.50;99.90;;;;;;5068045;28;20029;-52
2024/03/10 01:19:23;;;;;;;26.20;17.35;;;7.40;99.90;;;;;;5071497;28;20041;-52
2024/03/10 01:21:50;;;;;;;23.73;17.10;;;7.40;99.90;;;;;;5069418;28;20094;-50
2024/03/10 01:24:18;;;;;;;27.42;17.67;;;7.40;99.90;;;;;;5068014;28;20060;-53
2024/03/10 01:26:45;;;;;;;29.73;18.10;;;7.40;99.90;;;;;;5070026;28;20127;-48
2024/03/10 01:29:12;;;;;;;33.72;18.45;;;7.40;99.90;;;;;;5068117;28;20040;-50
2024/03/10 01:31:39;;;;;;;29.05;17.10;;;7.40;99.90;;;;;;5067982;28;20066;-51
2024/03/10 01:34:06;;;;;;;26.55;17.50;;;7.30;99.90;;;;;;5069547;28;20048;-51
2024/03/10 01:36:33;;;;;;;28.42;18.65;;;7.30;99.90;;;;;;5068378;28;20479;-48
2024/03/10 01:39:00;;;;;;;27.75;17.08;;;7.40;99.90;;;;;;5068082;28;20074;-48
2024/03/10 01:41:27;;;;;;;27.15;18.02;;;7.30;99.90;;;;;;5069214;28;20041;-51
2024/03/10 01:43:54;;;;;;;27.33;16.30;;;7.30;99.90;;;;;;5068773;28;20060;-52
2024/03/10 01:46:21;;;;;;;27.48;18.08;;;7.30;99.90;;;;;;5066200;28;20044;-46
2024/03/10 01:48:49;;;;;;;24.23;17.13;;;7.20;99.90;;;;;;5069046;28;20090;-47
2024/03/10 01:51:17;;;;;;;27.00;17.65;;;7.20;99.90;;;;;;5067466;28;20083;-53
2024/03/10 01:53:46;;;;;;;27.67;17.17;;;7.20;99.90;;;;;;5067901;28;20191;-50
2024/03/10 01:56:15;;;;;;;25.67;16.85;;;7.20;99.90;;;;;;5068320;28;20044;-51
2024/03/10 01:58:45;;;;;;;27.20;17.60;;;7.10;99.90;;;;;;5068317;28;20047;-49
2024/03/10 02:01:16;;;;;;;25.48;16.58;;;7.10;99.90;;;;;;5064119;28;20083;-54
2024/03/10 02:03:48;;;;;;;23.75;16.73;;;7.10;99.90;;;;;;5069587;28;20036;-48
2024/03/10 02:06:16;;;;;;;26.13;16.80;;;7.10;99.90;;;;;;5067525;28;20064;-49
2024/03/10 02:08:45;;;;;;;25.20;16.98;;;7.10;99.90;;;;;;5070301;28;20037;-53
2024/03/10 02:11:12;;;;;;;26.35;16.70;;;7.10;99.90;;;;;;5067580;28;20139;-48
2024/03/10 02:13:40;;;;;;;26.38;17.17;;;7.10;99.90;;;;;;5067344;28;20529;-48
2024/03/10 02:16:11;;;;;;;26.60;17.40;;;7.10;99.90;;;;;;5069000;28;20059;-49
2024/03/10 02:18:38;;;;;;;28.00;17.17;;;7.10;99.90;;;;;;5071747;28;20037;-46
2024/03/10 02:21:08;;;;;;;26.88;18.00;;;7.00;99.90;;;;;;5072117;28;20281;-52
2024/03/10 02:23:43;;;;;;;25.67;16.80;;;7.00;99.90;;;;;;5072561;28;20509;-49
2024/03/10 02:26:10;;;;;;;27.25;17.73;;;7.00;99.90;;;;;;5068989;28;20048;-53
2024/03/10 02:29:22;;;;;;;28.77;18.05;;;6.90;99.90;;;;;;5073268;28;20048;-48
2024/03/10 02:48:01;;;;;;;25.98;17.63;;;6.80;99.90;;;;;;5073687;28;20541;-46
2024/03/10 02:50:28;;;;;;;29.15;18.55;;;6.80;99.90;;;;;;5068603;28;20052;-52
2024/03/10 02:52:55;;;;;;;27.05;18.27;;;6.70;99.90;;;;;;5071152;28;20051;-55
2024/03/10 02:55:22;;;;;;;27.88;17.92;;;6.70;99.90;;;;;;5072511;28;20036;-47
2024/03/10 02:57:49;;;;;;;28.58;17.95;;;6.70;99.90;;;;;;5073386;28;20135;-49
2024/03/10 03:00:16;;;;;;;26.73;17.60;;;6.70;99.90;;;;;;5070978;28;20482;-45
2024/03/10 03:02:43;;;;;;;29.55;18.38;;;6.70;99.90;;;;;;5070890;28;20037;-47
2024/03/10 03:05:11;;;;;;;27.85;17.98;;;6.70;99.90;;;;;;5071275;28;20052;-50
2024/03/10 03:07:38;;;;;;;29.45;18.95;;;6.70;99.90;;;;;;5070224;28;20044;-46
2024/03/10 03:10:05;;;;;;;31.27;19.70;;;6.70;99.90;;;;;;5072018;28;20539;-51
2024/03/10 03:12:32;;;;;;;30.80;19.27;;;6.60;99.90;;;;;;5071487;28;20044;-49
2024/03/10 03:14:59;;;;;;;28.33;19.15;;;6.70;99.90;;;;;;5071732;28;20055;-50
2024/03/10 03:17:26;;;;;;;27.00;19.30;;;6.70;99.90;;;;;;5071145;28;20044;-51
2024/03/10 03:19:54;;;;;;;31.05;20.33;;;6.70;99.90;;;;;;5067891;28;20049;-49
2024/03/10 03:22:21;;;;;;;31.38;20.80;;;6.80;99.90;;;;;;5073649;28;20043;-53
2024/03/10 03:24:48;;;;;;;29.95;20.52;;;6.70;99.90;;;;;;5070571;28;20048;-56
2024/03/10 03:27:15;;;;;;;29.70;19.35;;;6.70;99.90;;;;;;5072907;28;20053;-50
2024/03/10 03:29:43;;;;;;;29.70;19.90;;;6.70;99.90;;;;;;5071982;28;20059;-50
2024/03/10 03:32:10;;;;;;;31.58;20.33;;;6.70;99.90;;;;;;5071149;28;20061;-48
2024/03/10 03:34:38;;;;;;;30.38;19.52;;;6.70;99.90;;;;;;5071644;28;20044;-56
2024/03/10 03:37:06;;;;;;;29.00;19.00;;;6.70;99.90;;;;;;5071250;28;20056;-52
2024/03/10 03:39:35;;;;;;;29.50;19.50;;;6.60;99.90;;;;;;5071278;28;20299;-46
2024/03/10 03:42:02;;;;;;;33.75;21.77;;;6.70;99.90;;;;;;5071478;28;20497;-46
2024/03/10 03:44:29;;;;;;;29.67;19.35;;;6.70;99.90;;;;;;5073055;28;20050;-53
2024/03/10 03:46:58;;;;;;;33.83;21.83;;;6.60;99.90;;;;;;5071233;28;20048;-52
2024/03/10 03:49:26;;;;;;;33.63;21.40;;;6.60;99.90;;;;;;5071545;28;20077;-49
2024/03/10 03:51:53;;;;;;;30.77;21.20;;;6.60;99.90;;;;;;5070874;28;20123;-48
2024/03/10 03:54:19;;;;;;;35.00;21.05;;;6.50;99.90;;;;;;5072853;28;20082;-46
2024/03/10 03:56:46;;;;;;;35.47;20.92;;;6.50;99.90;;;;;;5074273;28;20070;-52
2024/03/10 03:59:13;;;;;;;31.05;20.30;;;6.50;99.90;;;;;;5072607;28;20043;-49
2024/03/10 04:01:40;;;;;;;31.25;20.75;;;6.50;99.90;;;;;;5069053;28;20048;-52
2024/03/10 04:04:07;;;;;;;33.67;21.45;;;6.50;99.90;;;;;;5073392;28;20113;-48
2024/03/10 04:06:34;;;;;;;36.30;22.27;;;6.40;99.90;;;;;;5070467;28;20036;-52
2024/03/10 04:09:02;;;;;;;34.40;21.42;;;6.40;99.90;;;;;;5071673;28;20048;-53
2024/03/10 04:11:30;;;;;;;35.63;21.80;;;6.40;99.90;;;;;;5066542;28;20033;-47
2024/03/10 04:13:56;;;;;;;31.95;20.52;;;6.40;99.90;;;;;;5067668;28;20097;-52
2024/03/10 04:16:23;;;;;;;33.20;21.13;;;6.40;99.90;;;;;;5067245;28;20040;-51
2024/03/10 04:18:50;;;;;;;34.60;22.60;;;6.30;99.90;;;;;;5070627;28;20043;-47
2024/03/10 04:21:17;;;;;;;32.10;21.13;;;6.30;99.90;;;;;;5069371;28;20033;-50
2024/03/10 04:23:44;;;;;;;30.88;20.80;;;6.30;99.90;;;;;;5066399;28;20060;-49
2024/03/10 04:26:11;;;;;;;32.95;21.55;;;6.30;99.90;;;;;;5069769;28;20044;-52
2024/03/10 04:28:38;;;;;;;33.20;22.05;;;6.20;99.90;;;;;;5067749;28;20041;-50
2024/03/10 04:31:05;;;;;;;33.47;22.05;;;6.10;99.90;;;;;;5069301;28;20062;-50
2024/03/10 04:33:33;;;;;;;32.58;20.90;;;6.10;99.90;;;;;;5069557;28;20047;-49
2024/03/10 04:36:00;;;;;;;34.72;22.38;;;6.10;99.90;;;;;;5071397;28;20048;-51
2024/03/10 04:38:28;;;;;;;36.03;22.25;;;6.10;99.90;;;;;;5060903;28;20506;-48
2024/03/10 04:40:56;;;;;;;33.10;21.17;;;6.00;99.90;;;;;;5070829;28;20052;-51
2024/03/10 04:43:23;;;;;;;33.17;21.80;;;6.10;99.90;;;;;;5066895;28;20044;-48
2024/03/10 04:45:53;;;;;;;32.70;21.13;;;6.00;99.90;;;;;;5068263;28;20123;-49
2024/03/10 04:48:20;;;;;;;37.17;23.35;;;6.00;99.90;;;;;;5067977;28;20539;-51
2024/03/10 04:50:48;;;;;;;37.80;22.40;;;6.00;99.90;;;;;;5070763;28;20524;-48
2024/03/10 04:53:15;;;;;;;35.13;22.02;;;6.00;99.90;;;;;;5059355;28;20051;-47
2024/03/10 04:55:43;;;;;;;33.35;21.45;;;5.90;99.90;;;;;;5070663;28;20117;-49
2024/03/10 04:58:11;;;;;;;33.60;21.92;;;6.00;99.90;;;;;;5067921;28;20108;-54
2024/03/10 05:00:37;;;;;;;33.13;21.35;;;5.90;99.90;;;;;;5067873;28;20036;-47
2024/03/10 05:03:05;;;;;;;35.65;22.00;;;5.90;99.90;;;;;;5070217;28;20062;-47
2024/03/10 05:05:32;;;;;;;38.38;23.15;;;5.80;99.90;;;;;;5070682;28;20068;-53
2024/03/10 05:08:00;;;;;;;34.58;21.70;;;5.90;99.90;;;;;;5072021;28;20073;-48
2024/03/10 05:10:27;;;;;;;37.22;22.33;;;5.90;99.90;;;;;;5069629;28;20048;-49
2024/03/10 05:12:54;;;;;;;37.30;22.63;;;5.90;99.90;;;;;;5071657;28;20121;-46
2024/03/10 05:15:21;;;;;;;37.20;21.80;;;5.80;99.90;;;;;;5066756;28;20045;-49
2024/03/10 05:17:48;;;;;;;34.67;22.52;;;5.80;99.90;;;;;;5067901;28;20045;-54
2024/03/10 05:20:17;;;;;;;33.67;22.08;;;5.80;99.90;;;;;;5070711;28;20042;-52
2024/03/10 05:22:45;;;;;;;35.33;22.33;;;5.80;99.90;;;;;;5070198;28;20072;-49
2024/03/10 05:25:12;;;;;;;35.33;22.63;;;5.80;99.90;;;;;;5069047;28;20576;-50
2024/03/10 05:27:41;;;;;;;37.58;23.50;;;5.80;99.90;;;;;;5070382;28;20136;-50
2024/03/10 05:30:10;;;;;;;36.88;23.25;;;5.80;99.90;;;;;;5068796;28;20544;-47
2024/03/10 05:32:37;;;;;;;36.92;22.85;;;5.80;99.90;;;;;;5070239;28;20438;-49
2024/03/10 05:35:05;;;;;;;33.40;21.42;;;5.80;99.90;;;;;;5069923;28;20522;-48
2024/03/10 05:37:32;;;;;;;32.28;21.38;;;5.80;99.90;;;;;;5065415;28;20053;-50
2024/03/10 05:39:59;;;;;;;36.78;22.95;;;5.80;99.90;;;;;;5066486;28;20428;-51
2024/03/10 05:42:26;;;;;;;34.63;22.65;;;5.80;99.90;;;;;;5070563;28;20059;-48
2024/03/10 05:44:53;;;;;;;37.08;21.35;;;5.80;99.90;;;;;;5066704;28;20064;-53
2024/03/10 05:47:21;;;;;;;34.70;22.38;;;5.80;99.90;;;;;;5068689;28;20483;-47
2024/03/10 05:49:48;;;;;;;37.67;22.48;;;5.70;99.90;;;;;;5068650;28;20368;-46
2024/03/10 05:52:15;;;;;;;35.53;21.45;;;5.70;99.90;;;;;;5063554;28;20037;-51
2024/03/10 05:54:43;;;;;;;33.45;21.27;;;5.70;99.90;;;;;;5070284;28;20102;-52
2024/03/10 05:57:11;;;;;;;36.20;22.27;;;5.80;99.90;;;;;;5061732;28;20048;-52
2024/03/10 05:59:38;;;;;;;32.55;21.48;;;5.80;99.90;;;;;;5066449;28;20569;-49
2024/03/10 06:02:05;;;;;;;35.45;22.15;;;5.80;99.90;;;;;;5066597;28;20047;-47
2024/03/10 06:04:32;;;;;;;36.15;22.85;;;5.80;99.90;;;;;;5069381;28;20417;-47
2024/03/10 06:06:59;;;;;;;33.65;21.58;;;5.80;99.90;;;;;;5068985;28;20600;-52
2024/03/10 06:09:27;;;;;;;35.05;21.45;;;5.80;99.90;;;;;;5069040;28;20064;-52
2024/03/10 06:11:54;;;;;;;33.45;20.80;;;5.80;99.90;;;;;;5067593;28;20041;-52
2024/03/10 06:14:21;;;;;;;34.08;21.48;;;5.90;99.90;;;;;;5067568;28;20083;-50
2024/03/10 06:16:48;;;;;;;35.38;21.42;;;5.90;99.90;;;;;;5067483;28;20174;-50
2024/03/10 06:25:22;;;;;;;32.92;20.60;;;5.90;99.90;;;;;;5068227;28;20040;-48
2024/03/10 06:25:27;;;;;;;33.95;20.88;;;6.00;99.90;;;;;;5071469;28;20052;-48
2024/03/10 06:27:56;;;;;;;31.77;20.23;;;6.10;99.90;;;;;;5068168;28;20041;-54
2024/03/10 06:30:23;;;;;;;32.95;19.80;;;6.20;99.90;;;;;;5062673;28;20056;-46
2024/03/10 06:32:50;;;;;;;30.33;19.52;;;6.20;99.90;;;;;;5068569;28;20044;-50
2024/03/10 06:35:17;;;;;;;29.55;19.17;;;6.20;99.90;;;;;;5068551;28;20044;-45
2024/03/10 06:37:46;;;;;;;30.95;20.25;;;6.30;99.90;;;;;;5065492;28;20041;-53
2024/03/10 06:40:13;;;;;;;29.85;19.17;;;6.30;99.90;;;;;;5069141;28;20332;-47
2024/03/10 06:42:40;;;;;;;30.42;19.63;;;6.40;99.90;;;;;;5066488;28;20048;-47
2024/03/10 06:45:11;;;;;;;27.88;18.67;;;6.40;99.90;;;;;;5068665;28;20052;-53
2024/03/10 06:47:38;;;;;;;31.90;20.75;;;6.40;99.90;;;;;;5065387;28;20063;-53
2024/03/10 06:50:06;;;;;;;29.30;19.88;;;6.50;99.90;;;;;;5067636;28;20528;-50
2024/03/10 06:52:33;;;;;;;30.83;19.95;;;6.60;99.90;;;;;;5064823;28;20102;-52
2024/03/10 06:55:00;;;;;;;27.27;18.67;;;6.60;99.90;;;;;;5070994;28;20044;-48
2024/03/10 06:57:27;;;;;;;28.23;18.35;;;6.70;99.90;;;;;;5068013;28;20495;-49
2024/03/10 06:59:58;;;;;;;29.23;18.13;;;6.80;99.90;;;;;;5066072;28;20094;-50
2024/03/10 07:02:26;;;;;;;27.05;18.38;;;6.90;99.90;;;;;;5073021;28;20059;-46
2024/03/10 07:04:56;;;;;;;26.95;17.77;;;7.00;99.90;;;;;;5071102;28;20111;-51
2024/03/10 07:07:24;;;;;;;28.17;18.48;;;7.10;99.90;;;;;;5063794;28;20387;-54
2024/03/10 07:09:51;;;;;;;28.08;18.88;;;7.20;99.90;;;;;;5071599;28;20511;-49
2024/03/10 07:12:18;;;;;;;26.88;18.33;;;7.30;99.90;;;;;;5069383;28;20183;-52
2024/03/10 07:14:45;;;;;;;26.77;18.42;;;7.30;99.90;;;;;;5068470;28;20433;-48
2024/03/10 07:17:15;;;;;;;28.30;18.83;;;7.40;99.90;;;;;;5066197;28;20196;-46
2024/03/10 07:19:42;;;;;;;25.05;17.25;;;7.50;99.90;;;;;;5069655;28;20040;-53
2024/03/10 07:22:09;;;;;;;29.02;18.92;;;7.60;99.90;;;;;;5071163;28;20040;-47
2024/03/10 07:24:37;;;;;;;25.50;17.25;;;7.70;99.90;;;;;;5065073;28;20137;-47
2024/03/10 07:27:09;;;;;;;25.23;16.83;;;7.80;99.90;;;;;;5070970;28;20083;-53
2024/03/10 07:29:36;;;;;;;26.13;16.63;;;7.80;99.90;;;;;;5070973;28;20080;-47
2024/03/10 07:32:05;;;;;;;27.73;18.48;;;7.90;99.90;;;;;;5071954;28;20060;-50
2024/03/10 07:34:32;;;;;;;23.85;16.45;;;8.00;99.90;;;;;;5067012;28;20052;-54
2024/03/10 07:37:00;;;;;;;23.90;17.05;;;8.10;99.90;;;;;;5073435;28;20048;-49
2024/03/10 07:39:28;;;;;;;22.35;15.30;;;8.30;99.90;;;;;;5067846;28;20502;-51
2024/03/10 07:41:56;;;;;;;24.50;16.88;;;8.50;99.90;;;;;;5073737;28;20066;-50
2024/03/10 07:44:25;;;;;;;23.67;16.92;;;8.50;99.90;;;;;;5074616;28;20048;-49
2024/03/10 07:46:52;;;;;;;29.05;18.98;;;8.60;99.90;;;;;;5071297;28;20041;-56
2024/03/10 07:49:19;;;;;;;23.10;16.38;;;8.70;99.90;;;;;;5072296;28;20044;-52
2024/03/10 07:51:46;;;;;;;23.40;15.10;;;8.80;99.90;;;;;;5072206;28;20421;-49
2024/03/10 07:54:12;;;;;;;23.00;15.85;;;9.00;99.90;;;;;;5070069;28;20040;-49
2024/03/10 07:56:39;;;;;;;20.67;15.65;;;9.00;99.90;;;;;;5070525;28;20040;-50
2024/03/10 07:59:07;;;;;;;20.55;15.73;;;9.10;99.90;;;;;;5067817;28;20061;-48
2024/03/10 08:01:34;;;;;;;22.73;15.60;;;9.30;99.90;;;;;;5072408;28;20040;-50
2024/03/10 08:04:01;;;;;;;20.13;15.35;;;9.30;99.90;;;;;;5071397;28;20414;-54
2024/03/10 08:06:28;;;;;;;20.27;14.85;;;9.30;99.90;;;;;;5070756;28;20436;-51
2024/03/10 08:08:55;;;;;;;20.38;15.77;;;9.50;99.90;;;;;;5072464;28;20514;-51
2024/03/10 08:11:22;;;;;;;18.75;13.93;;;9.60;99.90;;;;;;5071940;28;20064;-49
2024/03/10 08:13:49;;;;;;;20.52;14.45;;;9.80;99.90;;;;;;5070808;28;20044;-55
2024/03/10 08:16:17;;;;;;;19.63;14.82;;;9.90;99.90;;;;;;5065349;28;20045;-50
2024/03/10 08:18:43;;;;;;;19.52;14.18;;;9.90;99.90;;;;;;5073161;28;20032;-52
2024/03/10 08:21:14;;;;;;;20.95;14.25;;;10.00;99.90;;;;;;5072337;28;20472;-50
2024/03/10 08:23:42;;;;;;;19.25;13.90;;;10.10;99.90;;;;;;5071845;28;20135;-49
2024/03/10 08:26:09;;;;;;;21.77;14.75;;;10.20;99.90;;;;;;5071366;28;20052;-48
2024/03/10 08:28:37;;;;;;;22.95;15.88;;;10.20;99.90;;;;;;5053555;28;20064;-50
2024/03/10 08:31:05;;;;;;;18.77;13.80;;;10.30;99.90;;;;;;5067331;28;20051;-50
2024/03/10 08:33:33;;;;;;;19.33;14.25;;;10.30;99.90;;;;;;5068927;28;20076;-50
2024/03/10 08:36:01;;;;;;;23.02;15.77;;;10.40;99.90;;;;;;5071525;28;20165;-51
2024/03/10 08:38:28;;;;;;;18.90;13.27;;;10.50;99.90;;;;;;5068640;28;20087;-47
2024/03/10 08:40:56;;;;;;;18.40;13.55;;;10.50;99.90;;;;;;5072647;28;20045;-47
2024/03/10 08:43:23;;;;;;;19.85;14.00;;;10.60;99.90;;;;;;5071976;28;20075;-49
2024/03/10 08:45:51;;;;;;;18.98;13.80;;;10.80;99.90;;;;;;5072583;28;20092;-52
2024/03/10 08:48:18;;;;;;;19.85;13.98;;;10.80;99.90;;;;;;5067262;28;20053;-44
2024/03/10 08:50:45;;;;;;;17.50;13.30;;;10.90;99.90;;;;;;5071193;28;20330;-46
2024/03/10 08:53:13;;;;;;;18.98;13.07;;;11.00;99.90;;;;;;5070417;28;20048;-48
2024/03/10 08:55:40;;;;;;;18.85;13.30;;;11.20;99.90;;;;;;5067882;28;20137;-50
2024/03/10 08:58:08;;;;;;;18.80;13.43;;;11.30;99.90;;;;;;5059719;28;20033;-46
2024/03/10 09:00:35;;;;;;;17.83;13.00;;;11.40;99.90;;;;;;5054875;28;20589;-57
2024/03/10 09:03:03;;;;;;;15.40;12.25;;;11.60;99.90;;;;;;5056681;28;20118;-51
2024/03/10 09:05:31;;;;;;;15.63;12.95;;;11.60;99.90;;;;;;5052160;28;20041;-52
2024/03/10 09:07:58;;;;;;;16.48;12.50;;;11.60;99.90;;;;;;5051691;28;20036;-50
2024/03/10 09:10:25;;;;;;;23.27;17.10;;;11.70;99.90;;;;;;5056123;28;20040;-47
2024/03/10 09:13:05;;;;;;;17.33;12.82;;;11.70;99.90;;;;;;5054708;28;20045;-54
2024/03/10 09:15:32;;;;;;;19.15;13.40;;;11.70;99.90;;;;;;5057814;28;20139;-50
2024/03/10 09:18:00;;;;;;;15.10;11.98;;;11.80;99.90;;;;;;5069141;28;20063;-50
2024/03/10 09:20:27;;;;;;;14.85;11.48;;;12.00;99.90;;;;;;5068208;28;20129;-53
2024/03/10 09:22:54;;;;;;;17.40;12.95;;;12.20;99.90;;;;;;5068946;28;20055;-46
2024/03/10 09:25:21;;;;;;;17.65;12.88;;;12.30;99.90;;;;;;5069630;28;20506;-52
2024/03/10 09:27:51;;;;;;;15.90;11.95;;;12.30;99.90;;;;;;5069650;28;20086;-53
2024/03/10 09:30:21;;;;;;;16.75;12.40;;;12.30;99.90;;;;;;5063619;28;20059;-46
2024/03/10 09:32:50;;;;;;;14.40;11.55;;;12.40;99.90;;;;;;5071666;28;20131;-47
2024/03/10 09:35:21;;;;;;;15.02;11.55;;;12.60;99.90;;;;;;5065860;28;20036;-49
2024/03/10 09:37:48;;;;;;;17.15;11.80;;;12.70;99.90;;;;;;5068908;28;20133;-46
2024/03/10 09:40:16;;;;;;;16.10;10.95;;;12.60;99.90;;;;;;5070354;28;20036;-50
2024/03/10 09:42:43;;;;;;;15.65;11.90;;;12.80;99.90;;;;;;5070732;28;20056;-50
2024/03/10 09:45:21;;;;;;;16.20;11.55;;;12.80;99.90;;;;;;5068604;28;20136;-48
2024/03/10 09:47:49;;;;;;;16.15;12.00;;;13.00;99.90;;;;;;5068056;28;20103;-47
2024/03/10 09:50:26;;;;;;;14.02;11.20;;;12.90;99.90;;;;;;5068418;28;20044;-52
2024/03/10 09:52:55;;;;;;;12.68;10.68;;;12.90;99.90;;;;;;5071387;28;20429;-51
2024/03/10 09:55:22;;;;;;;14.25;11.40;;;13.00;99.90;;;;;;5070515;28;20052;-47
2024/03/10 09:57:54;;;;;;;12.82;10.63;;;13.20;99.90;;;;;;5068809;28;20048;-48
2024/03/10 10:00:27;;;;;;;13.10;11.02;;;13.40;99.90;;;;;;5066850;28;20574;-48
2024/03/10 10:03:01;;;;;;;11.82;10.25;;;13.60;99.90;;;;;;5067691;28;20033;-49
2024/03/10 10:05:29;;;;;;;13.63;11.10;;;13.70;99.90;;;;;;5069800;28;20036;-49
2024/03/10 10:07:57;;;;;;;16.48;12.27;;;13.90;99.90;;;;;;5070711;28;20109;-49
2024/03/10 10:10:26;;;;;;;11.65;9.85;;;14.10;99.90;;;;;;5069677;28;20095;-50
2024/03/10 10:12:53;;;;;;;12.52;10.65;;;14.10;99.90;;;;;;5069963;28;20080;-54
2024/03/10 10:15:26;;;;;;;14.15;11.07;;;14.40;99.90;;;;;;5067971;28;20090;-53
2024/03/10 10:17:54;;;;;;;13.52;11.45;;;14.50;99.90;;;;;;5067454;28;20493;-48
2024/03/10 10:20:25;;;;;;;12.95;11.50;;;14.30;99.90;;;;;;5070187;28;20765;-54
2024/03/10 10:22:53;;;;;;;15.38;11.70;;;14.60;99.90;;;;;;5068358;28;20043;-51
2024/03/10 10:25:25;;;;;;;13.25;10.85;;;14.40;99.90;;;;;;5065520;28;20140;-49
2024/03/10 10:27:54;;;;;;;13.48;10.77;;;14.50;99.90;;;;;;5070142;28;20049;-51
2024/03/10 10:30:25;;;;;;;14.90;11.40;;;14.60;99.90;;;;;;5067364;28;20045;-56
2024/03/10 10:33:04;;;;;;;13.73;10.80;;;14.60;99.90;;;;;;5069610;28;20501;-51
2024/03/10 10:35:33;;;;;;;13.35;11.05;;;14.60;99.90;;;;;;5070355;28;20052;-52
2024/03/10 10:38:11;;;;;;;13.43;10.77;;;14.70;99.90;;;;;;5071454;28;20048;-49
2024/03/10 10:40:44;;;;;;;13.95;10.77;;;14.70;99.90;;;;;;5074372;28;20044;-51
2024/03/10 10:43:12;;;;;;;14.25;11.38;;;14.70;99.90;;;;;;5073484;28;20044;-44
2024/03/10 10:45:39;;;;;;;12.73;10.63;;;14.60;99.90;;;;;;5072816;28;20428;-51
2024/03/10 10:48:08;;;;;;;13.63;10.80;;;14.80;99.90;;;;;;5073938;28;20112;-54
2024/03/10 10:50:35;;;;;;;14.00;11.70;;;14.50;99.90;;;;;;5072421;28;21153;-56
2024/03/10 10:53:04;;;;;;;14.35;11.50;;;14.60;99.90;;;;;;5074078;28;20089;-52
2024/03/10 10:55:39;;;;;;;11.50;9.73;;;14.60;99.90;;;;;;5071912;28;20052;-50
2024/03/10 10:58:11;;;;;;;11.77;10.23;;;14.80;99.90;;;;;;5068315;28;20297;-52
2024/03/10 11:00:42;;;;;;;14.48;11.23;;;15.00;99.90;;;;;;5072761;28;20127;-49
2024/03/10 11:03:16;;;;;;;11.30;9.93;;;15.10;99.90;;;;;;5070160;28;20036;-49
2024/03/10 11:06:08;;;;;;;12.13;10.43;;;15.40;99.90;;;;;;5067921;28;20045;-51
2024/03/10 11:08:36;;;;;;;12.55;10.48;;;15.30;99.90;;;;;;5072640;28;20590;-54
2024/03/10 11:11:03;;;;;;;12.85;10.52;;;15.50;99.90;;;;;;5071225;28;20489;-51
2024/03/10 11:13:32;;;;;;;13.18;10.57;;;15.70;99.90;;;;;;5073872;28;20036;-52
2024/03/10 11:16:13;;;;;;;13.13;9.98;;;15.80;99.90;;;;;;5072626;28;20047;-54
2024/03/10 11:18:43;;;;;;;11.23;10.00;;;16.10;99.90;;;;;;5072321;28;20048;-48
2024/03/10 11:21:13;;;;;;;11.68;10.48;;;16.30;99.90;;;;;;5073279;28;20536;-50
2024/03/10 11:23:44;;;;;;;13.88;10.88;;;16.40;99.90;;;;;;5070172;28;20079;-50
2024/03/10 11:26:15;;;;;;;12.50;10.48;;;16.50;99.90;;;;;;5071430;28;20055;-50
2024/03/10 11:28:54;;;;;;;11.20;9.98;;;16.60;99.90;;;;;;5072196;28;20052;-49
2024/03/10 11:31:27;;;;;;;10.93;9.57;;;16.70;99.90;;;;;;5068617;28;20044;-53
2024/03/10 11:33:58;;;;;;;11.02;9.82;;;16.60;99.90;;;;;;5073191;28;20041;-49
2024/03/10 11:36:35;;;;;;;12.50;9.80;;;16.50;99.90;;;;;;5071465;28;20329;-53
2024/03/10 11:39:02;;;;;;;13.85;9.68;;;16.60;99.90;;;;;;5073764;28;20151;-45
2024/03/10 11:41:30;;;;;;;13.68;10.80;;;16.50;99.90;;;;;;5070432;28;20115;-59
2024/03/10 11:43:58;;;;;;;13.55;10.63;;;16.40;99.90;;;;;;5074436;28;20131;-51
2024/03/10 11:46:29;;;;;;;10.52;9.43;;;16.30;99.90;;;;;;5070320;28;20036;-48
2024/03/10 11:48:57;;;;;;;11.43;9.73;;;16.10;99.90;;;;;;5073429;28;20070;-52
2024/03/10 11:51:29;;;;;;;12.60;9.85;;;16.20;99.90;;;;;;5071521;28;20059;-53
2024/03/10 11:53:56;;;;;;;14.18;10.13;;;16.20;99.90;;;;;;5075192;28;20061;-49
2024/03/10 11:56:24;;;;;;;13.43;10.32;;;16.50;99.90;;;;;;5071425;28;20297;-50
2024/03/10 11:58:52;;;;;;;11.77;9.55;;;16.70;99.90;;;;;;5071649;28;20067;-47
2024/03/10 12:01:19;;;;;;;10.98;9.70;;;17.00;99.90;;;;;;5069556;28;20045;-50
2024/03/10 12:03:47;;;;;;;10.70;9.60;;;17.20;99.90;;;;;;5070828;28;20493;-53
2024/03/10 12:06:15;;;;;;;10.93;9.57;;;17.30;99.90;;;;;;5071452;28;20136;-55
2024/03/10 12:08:43;;;;;;;11.73;10.27;;;17.30;99.90;;;;;;5072603;28;20048;-50
2024/03/10 12:11:14;;;;;;;13.43;10.68;;;17.40;99.90;;;;;;5071486;28;20566;-52
2024/03/10 12:13:42;;;;;;;13.40;10.65;;;17.40;99.90;;;;;;5072935;28;20055;-51
2024/03/10 12:16:11;;;;;;;11.73;9.73;;;17.30;99.90;;;;;;5070860;28;20127;-47
2024/03/10 12:18:42;;;;;;;12.45;10.55;;;16.80;99.90;;;;;;5067636;28;20055;-50
2024/03/10 12:21:14;;;;;;;12.07;10.55;;;16.60;99.90;;;;;;5070964;28;20520;-52
2024/03/10 12:23:45;;;;;;;12.93;10.50;;;16.70;99.90;;;;;;5070288;28;20048;-50
2024/03/10 12:26:15;;;;;;;10.85;9.70;;;16.80;99.90;;;;;;5069705;28;20528;-53
2024/03/10 12:28:43;;;;;;;13.40;10.05;;;16.60;99.90;;;;;;5072689;28;20041;-45
2024/03/10 12:31:13;;;;;;;15.18;10.93;;;16.50;99.90;;;;;;5070380;28;20563;-51
2024/03/10 12:33:42;;;;;;;11.43;10.00;;;16.60;99.90;;;;;;5070795;28;20057;-49
2024/03/10 12:36:09;;;;;;;10.75;9.65;;;16.40;99.90;;;;;;5071610;28;20063;-55
2024/03/10 12:38:39;;;;;;;12.15;10.00;;;16.40;99.90;;;;;;5065631;28;20049;-49
2024/03/10 12:41:07;;;;;;;11.32;10.15;;;16.30;99.90;;;;;;5073116;28;20405;-47
2024/03/10 12:43:36;;;;;;;11.20;9.98;;;16.30;99.90;;;;;;5069857;28;20444;-51
2024/03/10 12:46:09;;;;;;;11.30;9.80;;;16.30;99.90;;;;;;5069530;28;20480;-49
2024/03/10 12:48:35;;;;;;;13.18;10.10;;;16.20;99.90;;;;;;5072776;28;20064;-52
2024/03/10 12:51:06;;;;;;;13.57;10.70;;;16.00;99.90;;;;;;5071821;28;20048;-49
2024/03/10 12:53:33;;;;;;;12.07;9.82;;;15.90;99.90;;;;;;5071642;28;20068;-50
2024/03/10 12:56:01;;;;;;;13.57;10.40;;;15.70;99.90;;;;;;5074549;28;20055;-49
2024/03/10 12:58:28;;;;;;;11.50;10.30;;;15.60;99.90;;;;;;5069185;28;20134;-49